Time;durP1;ratioP1;P1;durP2;ratioP2;P2;SDS_P1;SDS_P2;PMS_P1;PMS_P2;Temp;Humidity;BMP_temperature;BMP_pressure;BME280_temperature;BME280_humidity;BME280_pressure;Samples;Min_cycle;Max_cycle;Signal;HPM_P1;HPM_P2
2023/02/21 02:13:52;;;;;;;22.83;12.18;;;10.70;87.30;;;;;;5049226;28;20064;-60
2023/02/21 02:16:23;;;;;;;20.73;11.40;;;10.70;87.30;;;;;;5048842;28;20430;-59
2023/02/21 02:19:16;;;;;;;22.30;12.30;;;10.70;87.30;;;;;;5050128;28;20033;-64
2023/02/21 02:22:04;;;;;;;;;;;10.70;87.70;;;;;;5045004;28;20458;-64
2023/02/21 02:25:17;;;;;;;24.05;11.73;;;10.70;87.20;;;;;;5049833;28;19905;-65
2023/02/21 02:28:30;;;;;;;27.42;12.23;;;10.70;87.10;;;;;;5048229;28;20017;-60
2023/02/21 02:31:15;;;;;;;20.27;11.57;;;10.70;87.00;;;;;;5031520;28;20036;-59
2023/02/21 02:34:07;;;;;;;21.20;11.55;;;10.80;87.10;;;;;;5048040;28;20092;-64
2023/02/21 02:36:41;;;;;;;22.83;13.48;;;10.80;87.00;;;;;;5042529;28;20036;-59
2023/02/21 02:39:44;;;;;;;25.67;12.52;;;10.70;87.10;;;;;;5047917;28;20478;-59
2023/02/21 02:42:25;;;;;;;21.48;11.90;;;10.70;87.20;;;;;;5050988;28;20028;-59
2023/02/21 02:45:00;;;;;;;18.85;11.60;;;10.70;87.40;;;;;;5051337;28;20088;-59
2023/02/21 02:47:35;;;;;;;26.08;12.98;;;10.70;87.30;;;;;;5045131;28;20041;-64
2023/02/21 02:50:02;;;;;;;22.48;11.73;;;10.70;87.20;;;;;;5046970;28;20508;-64
2023/02/21 02:52:27;;;;;;;27.25;14.52;;;10.70;87.20;;;;;;5050389;28;20506;-64
2023/02/21 02:55:21;;;;;;;19.75;11.63;;;10.70;87.20;;;;;;5050662;28;20136;-65
2023/02/21 02:57:47;;;;;;;22.73;11.43;;;10.70;87.20;;;;;;5043536;28;20443;-64
2023/02/21 03:00:14;;;;;;;23.50;12.25;;;10.70;87.50;;;;;;5046551;28;20029;-64
2023/02/21 03:02:45;;;;;;;23.15;11.13;;;10.70;87.40;;;;;;5047573;28;20033;-64
2023/02/21 03:05:35;;;;;;;24.90;12.57;;;10.70;87.40;;;;;;5047396;28;20013;-64
2023/02/21 03:08:16;;;;;;;28.00;13.95;;;10.70;87.50;;;;;;5039514;28;20109;-63
2023/02/21 03:10:53;;;;;;;26.02;12.52;;;10.60;87.60;;;;;;5047994;28;20445;-64
2023/02/21 03:13:39;;;;;;;21.02;12.73;;;10.60;87.70;;;;;;5050251;28;20070;-64
2023/02/21 03:16:28;;;;;;;26.17;13.77;;;10.70;87.70;;;;;;5075259;28;20029;-64
2023/02/21 03:19:08;;;;;;;26.27;14.43;;;10.60;87.70;;;;;;5044155;28;20038;-65
2023/02/21 03:21:40;;;;;;;33.70;16.13;;;10.60;87.90;;;;;;5057864;28;20062;-64
2023/02/21 03:24:10;;;;;;;30.15;16.35;;;10.50;88.00;;;;;;5044267;28;20032;-64
2023/02/21 03:26:39;;;;;;;29.85;14.63;;;10.50;88.10;;;;;;5046318;28;20155;-64
2023/02/21 03:29:06;;;;;;;35.08;15.90;;;10.50;88.30;;;;;;5049968;28;20514;-64
2023/02/21 03:31:40;;;;;;;24.65;13.68;;;10.50;88.30;;;;;;5047555;28;20029;-60
2023/02/21 03:34:06;;;;;;;25.73;14.40;;;10.50;88.30;;;;;;5048934;28;20645;-60
2023/02/21 03:36:32;;;;;;;26.58;13.80;;;10.50;88.30;;;;;;5041180;28;20078;-58
2023/02/21 03:38:57;;;;;;;27.77;13.25;;;10.50;88.40;;;;;;5047228;28;20122;-64
2023/02/21 03:41:23;;;;;;;25.30;11.70;;;10.50;88.40;;;;;;5050224;28;20088;-64
2023/02/21 03:43:48;;;;;;;21.70;11.80;;;10.60;88.40;;;;;;5049409;28;20075;-63
2023/02/21 03:46:14;;;;;;;25.17;12.02;;;10.60;88.30;;;;;;5081962;28;20031;-60
2023/02/21 03:48:40;;;;;;;20.10;11.57;;;10.50;88.30;;;;;;5045028;28;20045;-60
2023/02/21 03:51:05;;;;;;;22.00;11.98;;;10.50;88.40;;;;;;5049404;28;20407;-59
2023/02/21 03:53:31;;;;;;;22.73;10.98;;;10.50;88.40;;;;;;5048049;28;20035;-58
2023/02/21 03:55:56;;;;;;;17.55;9.55;;;10.50;88.60;;;;;;5043160;28;20041;-59
2023/02/21 03:58:22;;;;;;;21.02;11.00;;;10.50;88.60;;;;;;5047639;28;20033;-59
2023/02/21 04:00:49;;;;;;;21.95;10.57;;;10.50;88.70;;;;;;5049726;28;20032;-60
2023/02/21 04:03:14;;;;;;;17.20;9.63;;;10.50;88.70;;;;;;5048357;28;20029;-61
2023/02/21 04:05:40;;;;;;;20.30;10.52;;;10.50;88.70;;;;;;5049889;28;20104;-65
2023/02/21 04:08:06;;;;;;;18.85;10.43;;;10.50;88.60;;;;;;5042173;28;20049;-65
2023/02/21 04:10:31;;;;;;;25.05;10.63;;;10.50;88.70;;;;;;5042348;28;20552;-64
2023/02/21 04:12:57;;;;;;;22.30;11.85;;;10.50;88.80;;;;;;5044953;28;20476;-60
2023/02/21 04:15:23;;;;;;;22.90;10.98;;;10.50;88.80;;;;;;5047652;28;20039;-60
2023/02/21 04:17:48;;;;;;;20.30;11.25;;;10.40;88.80;;;;;;5040451;28;20048;-59
2023/02/21 04:20:14;;;;;;;21.55;11.38;;;10.40;89.00;;;;;;5039153;28;20514;-59
2023/02/21 04:22:40;;;;;;;22.60;10.15;;;10.40;89.10;;;;;;5036124;28;20021;-59
2023/02/21 04:25:06;;;;;;;19.13;10.10;;;10.40;89.10;;;;;;5047292;28;20044;-61
2023/02/21 04:27:33;;;;;;;22.33;11.93;;;10.40;89.10;;;;;;5042858;28;20028;-60
2023/02/21 04:29:59;;;;;;;23.20;11.32;;;10.40;89.10;;;;;;5035170;28;20025;-60
2023/02/21 04:32:25;;;;;;;22.70;12.90;;;10.40;89.00;;;;;;5037222;28;20033;-60
2023/02/21 04:34:51;;;;;;;20.88;11.40;;;10.40;89.00;;;;;;5048666;28;20066;-60
2023/02/21 04:37:18;;;;;;;26.80;12.27;;;10.40;89.10;;;;;;5047669;28;20029;-59
2023/02/21 04:39:43;;;;;;;20.27;12.85;;;10.40;89.20;;;;;;5047940;28;20039;-60
2023/02/21 04:42:09;;;;;;;22.85;10.95;;;10.40;89.30;;;;;;5048684;28;20037;-60
2023/02/21 04:44:35;;;;;;;22.67;13.40;;;10.40;89.30;;;;;;5039341;28;20021;-59
2023/02/21 04:47:01;;;;;;;20.65;11.45;;;10.40;89.20;;;;;;5048136;28;20571;-59
2023/02/21 04:49:27;;;;;;;43.72;14.30;;;10.40;89.30;;;;;;5048967;28;20139;-59
2023/02/21 04:51:54;;;;;;;17.10;11.25;;;10.40;89.30;;;;;;5048093;28;20532;-59
2023/02/21 04:54:19;;;;;;;20.33;10.75;;;10.40;89.30;;;;;;5047341;28;20025;-60
2023/02/21 04:56:45;;;;;;;17.70;9.90;;;10.40;89.40;;;;;;5046972;28;20083;-58
2023/02/21 04:59:11;;;;;;;24.88;13.85;;;10.40;89.40;;;;;;5048711;28;20115;-59
2023/02/21 05:01:37;;;;;;;27.38;11.48;;;10.40;89.20;;;;;;5045773;28;20578;-58
2023/02/21 05:04:03;;;;;;;24.98;12.15;;;10.40;89.20;;;;;;5047854;28;20036;-59
2023/02/21 05:06:30;;;;;;;27.15;10.90;;;10.40;89.20;;;;;;5048277;28;20523;-59
2023/02/21 05:08:56;;;;;;;26.83;11.77;;;10.50;89.30;;;;;;5046510;28;20020;-65
2023/02/21 05:11:23;;;;;;;28.58;12.20;;;10.50;89.00;;;;;;5048135;28;20362;-65
2023/02/21 05:13:50;;;;;;;29.98;12.88;;;10.40;89.00;;;;;;5048585;28;20017;-64
2023/02/21 05:16:16;;;;;;;19.88;10.88;;;10.40;89.20;;;;;;5048309;28;20443;-60
2023/02/21 05:18:42;;;;;;;24.55;12.23;;;10.40;89.10;;;;;;5044838;28;20459;-61
2023/02/21 05:21:08;;;;;;;22.30;11.18;;;10.40;89.20;;;;;;5048657;28;20021;-58
2023/02/21 05:23:35;;;;;;;25.75;12.50;;;10.30;89.20;;;;;;5047275;28;20032;-64
2023/02/21 05:26:07;;;;;;;21.00;11.80;;;10.40;89.40;;;;;;5044620;28;20064;-64
2023/02/21 05:28:33;;;;;;;22.48;11.48;;;10.40;89.90;;;;;;5045511;28;20013;-65
2023/02/21 05:30:59;;;;;;;26.85;12.52;;;10.40;89.40;;;;;;5043002;28;20029;-64
2023/02/21 05:33:25;;;;;;;19.00;11.68;;;10.40;89.30;;;;;;5046861;28;20522;-64
2023/02/21 05:35:51;;;;;;;22.27;11.75;;;10.40;89.20;;;;;;5046516;28;20028;-64
2023/02/21 05:38:19;;;;;;;22.88;12.35;;;10.40;89.10;;;;;;5045401;28;20403;-64
2023/02/21 05:40:45;;;;;;;25.75;11.88;;;10.40;89.10;;;;;;5043464;28;20074;-64
2023/02/21 05:43:11;;;;;;;23.45;13.52;;;10.40;89.10;;;;;;5047146;28;20033;-64
2023/02/21 05:45:36;;;;;;;22.40;11.45;;;10.40;89.20;;;;;;5043073;28;20032;-64
2023/02/21 05:48:02;;;;;;;22.83;12.00;;;10.40;89.20;;;;;;5038458;28;20532;-64
2023/02/21 05:50:28;;;;;;;29.42;12.00;;;10.40;89.20;;;;;;5044707;28;20387;-65
2023/02/21 05:52:56;;;;;;;22.92;12.48;;;10.40;89.10;;;;;;5048339;28;20469;-64
2023/02/21 05:55:22;;;;;;;24.20;11.00;;;10.50;89.10;;;;;;5048117;28;20025;-64
2023/02/21 05:57:47;;;;;;;22.63;13.43;;;10.50;89.10;;;;;;5045436;28;20116;-59
2023/02/21 06:00:18;;;;;;;20.08;9.82;;;10.50;89.00;;;;;;5048240;28;20483;-61
2023/02/21 06:02:44;;;;;;;23.55;12.55;;;10.50;89.00;;;;;;5044910;28;20391;-59
2023/02/21 06:05:10;;;;;;;25.98;11.63;;;10.40;89.10;;;;;;5047897;28;20029;-59
2023/02/21 06:07:35;;;;;;;24.95;12.98;;;10.40;89.20;;;;;;5045284;28;20055;-59
2023/02/21 06:10:02;;;;;;;23.30;12.10;;;10.40;89.20;;;;;;5044417;28;20103;-60
2023/02/21 06:12:27;;;;;;;22.33;10.40;;;10.40;89.30;;;;;;5047674;28;20036;-59
2023/02/21 06:14:53;;;;;;;29.67;13.98;;;10.40;89.30;;;;;;5049081;28;20033;-63
2023/02/21 06:17:18;;;;;;;20.55;11.00;;;10.40;89.20;;;;;;5064628;28;20041;-65
2023/02/21 06:19:44;;;;;;;33.50;10.45;;;10.40;89.20;;;;;;5033649;28;20435;-64
2023/02/21 06:22:10;;;;;;;31.70;13.43;;;10.40;89.30;;;;;;5044846;28;20481;-60
2023/02/21 06:24:35;;;;;;;21.80;11.80;;;10.40;89.30;;;;;;5050046;28;20392;-60
2023/02/21 06:27:01;;;;;;;24.13;12.38;;;10.40;89.40;;;;;;5050785;28;20025;-64
2023/02/21 06:29:27;;;;;;;35.53;13.32;;;10.40;89.40;;;;;;5049725;28;20031;-60
2023/02/21 06:31:59;;;;;;;22.30;11.00;;;10.40;89.50;;;;;;5043851;28;20025;-59
2023/02/21 06:34:26;;;;;;;19.95;10.93;;;10.40;89.50;;;;;;5047921;28;20025;-59
2023/02/21 06:36:52;;;;;;;29.83;12.77;;;10.30;89.50;;;;;;5043088;28;20041;-59
2023/02/21 06:39:18;;;;;;;24.67;12.82;;;10.30;89.60;;;;;;5049446;28;20532;-60
2023/02/21 06:41:43;;;;;;;27.52;11.90;;;10.30;89.80;;;;;;5047670;28;20104;-64
2023/02/21 06:44:10;;;;;;;26.85;12.88;;;10.30;89.80;;;;;;5047365;28;20021;-63
2023/02/21 06:46:36;;;;;;;17.17;11.10;;;10.30;89.90;;;;;;5040628;28;20041;-64
2023/02/21 06:49:04;;;;;;;21.73;12.68;;;10.30;90.00;;;;;;5049392;28;20064;-64
2023/02/21 06:51:37;;;;;;;20.63;12.07;;;10.30;90.00;;;;;;5044857;28;20028;-64
2023/02/21 06:54:04;;;;;;;27.85;12.82;;;10.30;90.00;;;;;;5044327;28;20025;-59
2023/02/21 06:56:29;;;;;;;27.40;15.32;;;10.30;90.00;;;;;;5048655;28;20017;-64
2023/02/21 06:58:56;;;;;;;29.60;13.32;;;10.30;90.00;;;;;;5034127;28;20052;-64
2023/02/21 07:01:25;;;;;;;19.75;11.57;;;10.30;90.00;;;;;;5049636;28;20025;-64
2023/02/21 07:03:51;;;;;;;25.20;11.60;;;10.30;90.00;;;;;;5046897;28;20024;-64
2023/02/21 07:06:16;;;;;;;23.02;11.88;;;10.30;90.10;;;;;;5047890;28;20029;-59
2023/02/21 07:08:42;;;;;;;34.88;12.82;;;10.40;90.10;;;;;;5048317;28;20029;-59
2023/02/21 07:11:08;;;;;;;35.13;14.88;;;10.40;90.00;;;;;;5047731;28;20025;-65
2023/02/21 07:13:34;;;;;;;22.85;15.20;;;10.40;90.00;;;;;;5046015;28;20465;-65
2023/02/21 07:16:01;;;;;;;29.40;14.30;;;10.30;90.00;;;;;;5047516;28;20021;-65
2023/02/21 07:18:27;;;;;;;26.92;12.68;;;10.30;90.10;;;;;;5046590;28;20072;-65
2023/02/21 07:20:53;;;;;;;27.27;13.23;;;10.30;90.10;;;;;;5048283;28;20030;-65
2023/02/21 07:23:18;;;;;;;23.98;13.65;;;10.30;90.10;;;;;;5047873;28;20052;-65
2023/02/21 07:25:44;;;;;;;38.40;14.02;;;10.30;90.10;;;;;;5075141;28;20036;-65
2023/02/21 07:28:11;;;;;;;27.70;14.00;;;10.30;90.10;;;;;;5069509;28;20033;-62
2023/02/21 07:30:36;;;;;;;27.65;12.90;;;10.40;90.10;;;;;;5042270;28;20558;-63
2023/02/21 07:33:02;;;;;;;31.25;14.38;;;10.30;90.10;;;;;;5049593;28;20049;-66
2023/02/21 07:35:28;;;;;;;26.58;14.07;;;10.30;90.10;;;;;;5047460;28;20115;-66
2023/02/21 07:37:53;;;;;;;28.17;14.45;;;10.30;90.10;;;;;;5048684;28;20093;-66
2023/02/21 07:40:19;;;;;;;26.30;13.88;;;10.30;90.20;;;;;;5046835;28;20032;-66
2023/02/21 07:42:46;;;;;;;27.10;13.75;;;10.30;90.20;;;;;;5048973;28;20032;-63
2023/02/21 07:45:13;;;;;;;36.47;12.95;;;10.30;90.20;;;;;;5046982;28;20319;-61
2023/02/21 07:47:39;;;;;;;26.98;12.80;;;10.40;90.20;;;;;;5046893;28;20037;-65
2023/02/21 07:50:05;;;;;;;26.70;13.65;;;10.30;90.10;;;;;;5047533;28;20029;-65
2023/02/21 07:52:31;;;;;;;18.65;10.70;;;10.40;90.20;;;;;;5049145;28;20052;-61
2023/02/21 07:54:57;;;;;;;28.67;14.13;;;10.40;90.20;;;;;;5049742;28;20110;-61
2023/02/21 07:57:22;;;;;;;32.33;13.77;;;10.40;90.20;;;;;;5045199;28;20433;-62
2023/02/21 07:59:48;;;;;;;30.23;13.75;;;10.40;90.10;;;;;;5051459;28;20028;-62
2023/02/21 08:02:14;;;;;;;26.33;14.00;;;10.40;90.10;;;;;;5035487;28;20032;-62
2023/02/21 08:04:40;;;;;;;23.10;13.35;;;10.40;90.10;;;;;;5051283;28;20029;-62
2023/02/21 08:07:07;;;;;;;25.42;13.13;;;10.40;90.20;;;;;;5050956;28;20087;-62
2023/02/21 08:09:34;;;;;;;23.17;13.23;;;10.40;90.20;;;;;;5053372;28;20029;-62
2023/02/21 08:12:00;;;;;;;33.00;13.57;;;10.40;90.40;;;;;;5052412;28;20055;-63
2023/02/21 08:14:26;;;;;;;28.58;15.18;;;10.40;90.20;;;;;;5054637;28;20101;-61
2023/02/21 08:16:51;;;;;;;30.02;14.18;;;10.30;90.20;;;;;;5047761;28;20033;-65
2023/02/21 08:19:17;;;;;;;38.30;14.48;;;10.30;90.20;;;;;;5048051;28;20769;-65
2023/02/21 08:21:47;;;;;;;30.77;14.55;;;10.30;90.30;;;;;;5051809;28;20024;-65
2023/02/21 08:24:14;;;;;;;28.02;13.43;;;10.30;90.30;;;;;;5054270;28;20456;-65
2023/02/21 08:26:40;;;;;;;27.25;15.00;;;10.40;90.30;;;;;;5042242;28;20120;-70
2023/02/21 08:29:07;;;;;;;27.83;15.38;;;10.30;90.30;;;;;;5041276;28;20032;-64
2023/02/21 08:31:40;;;;;;;27.42;14.23;;;10.30;90.30;;;;;;5044334;28;20353;-64
2023/02/21 08:34:07;;;;;;;30.35;16.10;;;10.30;90.40;;;;;;5041270;28;20443;-64
2023/02/21 08:36:40;;;;;;;40.95;14.77;;;10.30;90.40;;;;;;5042470;28;20033;-59
2023/02/21 08:39:07;;;;;;;47.13;15.95;;;10.30;90.40;;;;;;5041854;28;20029;-63
2023/02/21 08:41:38;;;;;;;27.52;12.90;;;10.30;90.50;;;;;;5042566;28;20452;-59
2023/02/21 08:44:05;;;;;;;24.67;12.70;;;10.30;90.40;;;;;;5037915;28;20045;-63
2023/02/21 08:46:30;;;;;;;40.80;13.27;;;10.40;90.40;;;;;;5039830;28;20120;-58
2023/02/21 08:48:56;;;;;;;28.67;13.15;;;10.40;90.30;;;;;;5039112;28;20124;-59
2023/02/21 08:51:26;;;;;;;24.40;12.65;;;10.40;90.30;;;;;;5048571;28;20781;-58
2023/02/21 08:53:51;;;;;;;51.97;15.02;;;10.50;90.30;;;;;;5048782;28;20595;-59
2023/02/21 08:56:19;;;;;;;33.45;13.80;;;10.40;90.20;;;;;;5048280;28;20160;-59
2023/02/21 08:58:45;;;;;;;43.67;15.00;;;10.40;90.30;;;;;;5046295;28;20079;-58
2023/02/21 09:01:10;;;;;;;41.05;12.75;;;10.40;90.30;;;;;;5046411;28;20424;-59
2023/02/21 09:03:36;;;;;;;45.00;15.75;;;10.30;90.40;;;;;;5047480;28;20431;-64
2023/02/21 09:06:02;;;;;;;25.05;14.70;;;10.30;90.50;;;;;;5048179;28;20021;-64
2023/02/21 09:08:29;;;;;;;24.08;11.77;;;10.30;90.50;;;;;;5041963;28;20025;-65
2023/02/21 09:10:59;;;;;;;26.35;12.02;;;10.30;90.50;;;;;;5043713;28;20053;-65
2023/02/21 09:13:25;;;;;;;25.73;12.60;;;10.30;90.50;;;;;;5042819;28;20047;-65
2023/02/21 09:15:51;;;;;;;32.40;14.23;;;10.40;90.50;;;;;;5038930;28;20025;-63
2023/02/21 09:18:16;;;;;;;30.52;13.63;;;10.40;90.40;;;;;;5067792;28;20080;-64
2023/02/21 09:20:42;;;;;;;22.40;12.23;;;10.40;90.40;;;;;;5039440;28;20083;-65
2023/02/21 09:23:08;;;;;;;22.50;11.88;;;10.40;90.30;;;;;;5038322;28;20029;-66
2023/02/21 09:25:34;;;;;;;22.88;12.00;;;10.40;90.40;;;;;;5045233;28;20055;-60
2023/02/21 09:28:00;;;;;;;21.05;12.65;;;10.40;90.40;;;;;;5032294;28;20061;-60
2023/02/21 09:30:28;;;;;;;25.83;9.95;;;10.40;90.40;;;;;;5038186;28;20482;-58
2023/02/21 09:32:55;;;;;;;21.98;9.55;;;10.40;90.30;;;;;;5065732;28;20041;-58
2023/02/21 09:35:21;;;;;;;20.95;10.95;;;10.40;90.30;;;;;;5042933;28;20025;-64
2023/02/21 09:37:46;;;;;;;23.45;11.35;;;10.40;90.30;;;;;;5032971;28;20025;-58
2023/02/21 09:40:34;;;;;;;21.98;10.75;;;10.50;90.30;;;;;;5044562;28;20476;-59
2023/02/21 09:43:01;;;;;;;19.85;10.95;;;10.50;90.30;;;;;;5068730;28;20052;-64
2023/02/21 09:45:32;;;;;;;17.83;9.40;;;10.40;90.30;;;;;;5046698;28;20063;-64
2023/02/21 09:48:05;;;;;;;16.83;8.73;;;10.50;90.30;;;;;;5042025;28;20041;-65
2023/02/21 09:50:38;;;;;;;17.77;9.30;;;10.50;90.30;;;;;;5048110;28;20104;-65
2023/02/21 09:53:05;;;;;;;13.80;7.65;;;10.40;90.30;;;;;;5049184;28;20028;-65
2023/02/21 09:55:37;;;;;;;17.20;9.40;;;10.50;90.30;;;;;;5046879;28;20127;-65
2023/02/21 09:58:13;;;;;;;15.18;7.07;;;10.50;90.20;;;;;;5044035;28;20033;-64
2023/02/21 10:00:40;;;;;;;17.92;9.45;;;10.60;90.20;;;;;;5042350;28;20388;-65
2023/02/21 10:03:27;;;;;;;13.18;7.05;;;10.60;90.00;;;;;;5046251;28;20561;-65
2023/02/21 10:05:58;;;;;;;19.35;8.35;;;10.60;90.10;;;;;;5048329;28;20029;-59
2023/02/21 10:08:46;;;;;;;14.68;8.98;;;10.60;90.10;;;;;;5046111;28;20100;-59
2023/02/21 10:11:17;;;;;;;22.02;11.60;;;10.60;90.10;;;;;;5066331;28;20059;-58
2023/02/21 10:14:23;;;;;;;18.02;9.90;;;10.60;90.10;;;;;;5050842;28;20033;-59
2023/02/21 10:17:03;;;;;;;15.13;8.60;;;10.60;90.00;;;;;;5036502;28;20029;-64
2023/02/21 10:19:36;;;;;;;14.05;8.30;;;10.60;90.10;;;;;;5039685;28;20514;-65
2023/02/21 10:22:24;;;;;;;19.90;10.30;;;10.70;90.10;;;;;;5048896;28;20029;-59
2023/02/21 10:24:52;;;;;;;17.50;8.88;;;10.70;90.00;;;;;;5045044;28;20021;-59
2023/02/21 10:27:25;;;;;;;17.45;8.30;;;10.70;90.00;;;;;;5043263;28;20112;-60
2023/02/21 10:29:55;;;;;;;15.73;9.57;;;10.70;90.00;;;;;;5046377;28;20029;-59
2023/02/21 10:32:23;;;;;;;17.95;8.77;;;10.70;89.90;;;;;;5048222;28;20029;-65
2023/02/21 10:34:53;;;;;;;22.15;10.70;;;10.70;89.90;;;;;;5064526;28;20029;-65
2023/02/21 10:37:39;;;;;;;18.83;10.00;;;10.70;89.90;;;;;;5051979;28;20033;-65
2023/02/21 10:40:08;;;;;;;17.40;9.05;;;10.70;89.80;;;;;;5046834;28;20071;-65
2023/02/21 10:42:49;;;;;;;19.58;10.10;;;10.70;90.00;;;;;;5047220;28;20494;-59
2023/02/21 10:45:17;;;;;;;15.60;8.73;;;10.70;90.00;;;;;;5051099;28;20017;-64
2023/02/21 10:48:04;;;;;;;19.52;10.48;;;10.70;90.00;;;;;;5043951;28;20045;-64
2023/02/21 10:50:48;;;;;;;17.45;9.57;;;10.70;90.00;;;;;;5041535;28;20067;-65
2023/02/21 10:53:35;;;;;;;21.58;10.57;;;10.70;89.90;;;;;;5038436;28;20500;-65
2023/02/21 10:56:14;;;;;;;22.08;11.48;;;10.80;90.20;;;;;;5049107;28;20040;-65
2023/02/21 10:59:05;;;;;;;22.42;10.88;;;10.80;89.90;;;;;;5038850;28;20029;-65
2023/02/21 11:01:52;;;;;;;18.80;10.07;;;10.80;89.70;;;;;;5037078;28;20049;-65
2023/02/21 11:04:21;;;;;;;20.95;10.27;;;10.80;89.80;;;;;;5044133;28;20029;-65
2023/02/21 11:06:55;;;;;;;22.85;11.30;;;10.70;89.80;;;;;;5039528;28;20036;-64
2023/02/21 11:09:31;;;;;;;19.67;9.15;;;10.70;89.90;;;;;;5048479;28;20029;-65
2023/02/21 11:12:04;;;;;;;22.40;8.90;;;10.70;89.90;;;;;;5042834;28;20030;-58
2023/02/21 11:14:32;;;;;;;22.25;10.63;;;10.80;89.90;;;;;;5049094;28;20384;-59
2023/02/21 11:17:28;;;;;;;19.05;10.02;;;10.80;89.70;;;;;;5048308;28;20070;-65
2023/02/21 11:20:01;;;;;;;19.83;10.35;;;10.80;89.70;;;;;;5040668;28;20507;-65
2023/02/21 11:22:32;;;;;;;22.08;11.98;;;10.80;89.80;;;;;;5038889;28;20028;-58
2023/02/21 11:25:17;;;;;;;23.07;11.83;;;10.80;89.70;;;;;;5046865;28;20387;-65
2023/02/21 11:27:43;;;;;;;24.45;9.88;;;10.80;89.70;;;;;;5044815;28;20060;-65
2023/02/21 11:30:19;;;;;;;20.20;10.95;;;10.80;89.60;;;;;;5046838;28;20025;-65
2023/02/21 11:32:54;;;;;;;21.25;10.80;;;10.80;89.50;;;;;;5046319;28;20094;-65
2023/02/21 11:35:19;;;;;;;24.02;11.13;;;10.80;89.70;;;;;;5050691;28;20025;-65
2023/02/21 11:38:00;;;;;;;24.58;9.32;;;10.80;89.70;;;;;;5045015;28;20472;-65
2023/02/21 11:40:34;;;;;;;19.35;10.23;;;10.90;89.60;;;;;;5059911;28;20607;-60
2023/02/21 11:43:19;;;;;;;16.33;9.10;;;11.00;89.60;;;;;;5041776;28;20052;-58
2023/02/21 11:45:51;;;;;;;17.15;8.15;;;11.00;89.40;;;;;;5035188;28;20117;-64
2023/02/21 11:48:26;;;;;;;19.58;9.35;;;11.00;89.30;;;;;;5040190;28;20044;-58
2023/02/21 11:50:53;;;;;;;19.55;9.57;;;11.00;89.80;;;;;;5037373;28;20032;-64
2023/02/21 11:53:21;;;;;;;17.60;8.27;;;11.00;89.30;;;;;;5045665;28;20037;-64
2023/02/21 11:55:59;;;;;;;11.43;6.95;;;11.00;89.20;;;;;;5048484;28;20052;-65
2023/02/21 11:58:33;;;;;;;15.88;7.28;;;11.10;89.20;;;;;;5046915;28;20029;-57
2023/02/21 12:01:08;;;;;;;16.13;7.85;;;11.00;89.20;;;;;;5044192;28;20029;-58
2023/02/21 12:03:43;;;;;;;12.75;7.38;;;11.00;89.20;;;;;;5049848;28;20017;-60
2023/02/21 12:06:11;;;;;;;12.40;7.03;;;11.00;89.60;;;;;;5049149;28;20079;-60
2023/02/21 12:08:46;;;;;;;14.10;6.78;;;11.00;89.30;;;;;;5049392;28;20021;-59
2023/02/21 12:11:27;;;;;;;11.07;5.78;;;11.00;89.30;;;;;;5048359;28;20064;-59
2023/02/21 12:13:59;;;;;;;16.98;7.55;;;11.00;89.30;;;;;;5050265;28;20095;-59
2023/02/21 12:16:51;;;;;;;11.57;6.50;;;11.00;89.30;;;;;;5049006;28;20032;-60
2023/02/21 12:19:57;;;;;;;11.93;6.10;;;11.00;89.20;;;;;;5038856;28;20033;-64
2023/02/21 12:22:45;;;;;;;11.45;6.65;;;11.10;89.10;;;;;;5044880;28;20083;-58
2023/02/21 12:25:41;;;;;;;9.80;5.20;;;11.20;89.10;;;;;;5044537;28;20518;-64
2023/02/21 12:28:22;;;;;;;9.20;5.45;;;11.20;88.80;;;;;;5043352;28;20029;-65
2023/02/21 12:30:59;;;;;;;11.20;5.80;;;11.10;88.70;;;;;;5043790;28;20035;-65
2023/02/21 12:33:33;;;;;;;6.65;4.05;;;11.00;88.90;;;;;;5042862;28;20039;-59
2023/02/21 12:36:28;;;;;;;7.68;4.20;;;11.00;89.10;;;;;;5046994;28;20400;-65
2023/02/21 12:39:10;;;;;;;4.95;3.13;;;11.00;89.20;;;;;;5038005;28;20032;-59
2023/02/21 12:41:45;;;;;;;9.05;4.00;;;11.00;89.10;;;;;;5037881;28;20071;-59
2023/02/21 12:44:15;;;;;;;8.00;4.65;;;11.00;89.00;;;;;;5038381;28;20031;-65
2023/02/21 12:46:53;;;;;;;6.55;4.07;;;10.90;89.10;;;;;;5048512;28;20079;-59
2023/02/21 12:49:31;;;;;;;5.43;2.85;;;10.90;89.10;;;;;;5048535;28;20041;-59
2023/02/21 12:52:14;;;;;;;5.25;3.35;;;10.90;89.40;;;;;;5044558;28;20508;-60
2023/02/21 12:55:11;;;;;;;8.15;3.35;;;10.90;89.20;;;;;;5037292;28;20026;-60
2023/02/21 12:58:18;;;;;;;6.20;2.55;;;11.00;89.20;;;;;;5043275;28;20029;-65
2023/02/21 13:00:54;;;;;;;3.92;2.40;;;11.00;89.10;;;;;;5062938;28;20036;-65
2023/02/21 13:03:35;;;;;;;6.40;2.85;;;11.00;89.10;;;;;;5063265;28;20017;-65
2023/02/21 13:06:26;;;;;;;5.20;3.45;;;11.10;88.80;;;;;;5037089;28;20033;-58
2023/02/21 13:09:10;;;;;;;5.65;2.63;;;11.00;88.80;;;;;;5040008;28;20025;-59
2023/02/21 13:11:44;;;;;;;5.35;3.38;;;11.00;88.80;;;;;;5044261;28;20025;-65
2023/02/21 13:14:15;;;;;;;7.00;3.53;;;11.00;88.90;;;;;;5042406;28;20013;-64
2023/02/21 13:16:41;;;;;;;3.47;2.50;;;11.00;88.90;;;;;;5044921;28;20029;-64
2023/02/21 13:19:10;;;;;;;6.18;3.10;;;11.00;89.30;;;;;;5048027;28;20051;-59
2023/02/21 13:21:59;;;;;;;5.18;2.97;;;11.00;88.70;;;;;;5040165;28;20403;-58
2023/02/21 13:24:43;;;;;;;5.70;4.00;;;11.00;88.70;;;;;;5044905;28;20033;-58
2023/02/21 13:27:27;;;;;;;6.57;3.72;;;11.00;88.90;;;;;;5051238;28;20029;-59
2023/02/21 13:30:11;;;;;;;6.50;3.05;;;11.00;88.70;;;;;;5038871;28;20036;-58
2023/02/21 13:32:39;;;;;;;9.00;4.13;;;11.00;88.90;;;;;;5046816;28;20020;-59
2023/02/21 13:35:08;;;;;;;7.82;3.72;;;11.00;88.80;;;;;;5044529;28;20021;-58
2023/02/21 13:37:35;;;;;;;6.70;3.83;;;11.00;88.80;;;;;;5045517;28;20123;-58
2023/02/21 13:40:15;;;;;;;6.15;3.47;;;11.10;88.90;;;;;;5045717;28;20389;-59
2023/02/21 13:42:41;;;;;;;7.13;4.05;;;11.10;88.70;;;;;;5046879;28;20029;-65
2023/02/21 13:45:20;;;;;;;4.50;3.47;;;11.10;88.70;;;;;;5051700;28;20029;-59
2023/02/21 13:48:10;;;;;;;9.13;4.13;;;11.10;88.80;;;;;;5043427;28;20391;-65
2023/02/21 13:50:40;;;;;;;5.70;3.53;;;11.10;88.70;;;;;;5044688;28;20056;-58
2023/02/21 13:53:21;;;;;;;6.55;3.10;;;11.10;88.80;;;;;;5045683;28;20701;-65
2023/02/21 13:55:59;;;;;;;7.07;3.78;;;11.10;88.70;;;;;;5044394;28;20296;-65
2023/02/21 13:58:35;;;;;;;9.35;4.95;;;11.10;88.60;;;;;;5032837;28;20037;-59
2023/02/21 14:01:21;;;;;;;8.13;4.28;;;11.10;88.50;;;;;;5040850;28;20071;-58
2023/02/21 14:03:48;;;;;;;8.00;3.95;;;11.10;88.90;;;;;;5036133;28;20112;-58
2023/02/21 14:06:32;;;;;;;8.38;4.07;;;11.10;88.60;;;;;;5033700;28;20036;-59
2023/02/21 14:09:05;;;;;;;6.80;3.92;;;11.10;88.60;;;;;;5051842;28;20021;-58
2023/02/21 14:11:38;;;;;;;7.15;3.70;;;11.10;88.80;;;;;;5043857;28;20033;-59
2023/02/21 14:14:24;;;;;;;6.00;4.03;;;11.10;88.70;;;;;;5040837;28;20036;-58
2023/02/21 14:17:01;;;;;;;6.82;4.28;;;11.20;88.40;;;;;;5039708;28;20029;-64
2023/02/21 14:19:44;;;;;;;7.47;3.20;;;11.10;88.50;;;;;;5049034;28;20396;-59
2023/02/21 14:22:20;;;;;;;7.45;3.53;;;11.00;88.60;;;;;;5048428;28;20025;-59
2023/02/21 14:24:48;;;;;;;5.35;3.42;;;11.00;88.70;;;;;;5041584;28;20021;-58
2023/02/21 14:27:17;;;;;;;5.70;3.75;;;11.00;88.70;;;;;;5041369;28;20029;-58
2023/02/21 14:30:04;;;;;;;12.15;4.15;;;11.00;88.70;;;;;;5048182;28;20024;-58
2023/02/21 14:32:35;;;;;;;4.80;3.55;;;11.00;88.70;;;;;;5041950;28;20032;-58
2023/02/21 14:35:19;;;;;;;5.65;3.72;;;11.00;88.60;;;;;;5045524;28;20660;-59
2023/02/21 14:38:02;;;;;;;9.50;3.70;;;11.00;88.70;;;;;;5045628;28;20029;-65
2023/02/21 14:40:31;;;;;;;13.98;4.47;;;11.10;88.70;;;;;;5042272;28;20060;-64
2023/02/21 14:43:09;;;;;;;11.00;5.63;;;11.10;88.60;;;;;;5041295;28;20481;-65
2023/02/21 14:45:49;;;;;;;9.73;3.90;;;11.20;88.40;;;;;;5048534;28;20059;-66
2023/02/21 14:48:30;;;;;;;6.82;3.90;;;11.20;88.30;;;;;;5035954;28;20045;-65
2023/02/21 14:51:11;;;;;;;8.23;4.37;;;11.20;88.30;;;;;;5040062;28;20128;-59
2023/02/21 14:54:11;;;;;;;7.25;3.60;;;11.20;88.90;;;;;;5065117;28;20029;-65
2023/02/21 14:56:51;;;;;;;9.45;4.15;;;11.20;88.30;;;;;;5059848;28;20037;-64
2023/02/21 14:59:38;;;;;;;9.93;4.60;;;11.20;88.30;;;;;;5041428;28;20121;-59
2023/02/21 15:02:30;;;;;;;9.13;4.15;;;11.30;88.30;;;;;;5047771;28;20480;-59
2023/02/21 15:05:14;;;;;;;4.97;3.20;;;11.30;88.20;;;;;;5040381;28;20082;-65
2023/02/21 15:07:58;;;;;;;11.00;5.40;;;11.30;88.10;;;;;;5038531;28;20482;-58
2023/02/21 15:10:25;;;;;;;13.20;5.85;;;11.40;88.10;;;;;;5041383;28;20045;-58
2023/02/21 15:13:00;;;;;;;9.27;5.68;;;11.30;88.10;;;;;;5033158;28;20048;-65